Time;durP1;ratioP1;P1;durP2;ratioP2;P2;SDS_P1;SDS_P2;PMS_P1;PMS_P2;Temp;Humidity;BMP_temperature;BMP_pressure;BME280_temperature;BME280_humidity;BME280_pressure;Samples;Min_cycle;Max_cycle;Signal;HPM_P1;HPM_P2
2021/06/30 00:00:31;;;;;;;19.92;13.75;;;;;;;;;;5078739;28;20024;-83
2021/06/30 00:02:57;;;;;;;16.50;11.43;;;;;;;;;;5078674;28;20028;-83
2021/06/30 00:05:23;;;;;;;20.67;14.23;;;;;;;;;;5078531;28;20303;-83
2021/06/30 00:07:49;;;;;;;25.25;19.92;;;;;;;;;;5078614;28;20025;-83
2021/06/30 00:10:15;;;;;;;15.27;10.20;;;;;;;;;;5078486;28;20406;-82
2021/06/30 00:12:41;;;;;;;14.93;11.73;;;;;;;;;;5078378;28;20089;-82
2021/06/30 00:15:09;;;;;;;19.48;12.52;;;;;;;;;;5078501;28;20129;-81
2021/06/30 00:17:35;;;;;;;22.13;16.00;;;;;;;;;;5078324;28;20051;-82
2021/06/30 00:20:01;;;;;;;14.65;8.85;;;;;;;;;;5077122;28;20036;-81
2021/06/30 00:22:27;;;;;;;14.00;10.85;;;;;;;;;;5077055;28;20074;-82
2021/06/30 00:24:53;;;;;;;17.13;13.30;;;;;;;;;;5078382;28;20062;-82
2021/06/30 00:27:20;;;;;;;13.45;10.02;;;;;;;;;;5078141;28;20095;-81
2021/06/30 00:29:46;;;;;;;15.30;11.88;;;;;;;;;;5078054;28;20031;-81
2021/06/30 00:32:12;;;;;;;21.05;14.68;;;;;;;;;;5078024;28;20021;-82
2021/06/30 00:34:38;;;;;;;19.02;12.63;;;;;;;;;;5076991;28;20032;-82
2021/06/30 00:37:04;;;;;;;13.55;8.73;;;;;;;;;;5078237;28;20108;-82
2021/06/30 00:39:30;;;;;;;19.45;10.85;;;;;;;;;;5077940;28;20467;-83
2021/06/30 00:41:57;;;;;;;18.40;12.88;;;;;;;;;;5077710;28;20064;-82
2021/06/30 00:44:24;;;;;;;16.40;10.98;;;;;;;;;;5077995;28;20130;-82
2021/06/30 00:46:50;;;;;;;17.02;11.30;;;;;;;;;;5077761;28;20080;-83
2021/06/30 00:49:16;;;;;;;15.90;8.60;;;;;;;;;;5077685;28;20043;-82
2021/06/30 00:51:42;;;;;;;12.35;9.07;;;;;;;;;;5077273;28;20031;-82
2021/06/30 00:54:08;;;;;;;13.77;9.75;;;;;;;;;;5077786;28;20028;-82
2021/06/30 00:56:35;;;;;;;12.57;8.65;;;;;;;;;;5077690;28;20017;-82
2021/06/30 00:59:01;;;;;;;18.10;10.60;;;;;;;;;;5077814;28;20365;-83
2021/06/30 01:01:27;;;;;;;13.23;9.70;;;;;;;;;;5077574;28;20025;-83
2021/06/30 01:03:54;;;;;;;11.77;8.77;;;;;;;;;;5077520;28;20044;-82
2021/06/30 01:06:20;;;;;;;12.95;8.70;;;;;;;;;;5077486;28;20050;-82
2021/06/30 01:08:47;;;;;;;16.20;9.82;;;;;;;;;;5077567;28;20313;-83
2021/06/30 01:11:14;;;;;;;14.82;9.30;;;;;;;;;;5076250;28;20024;-83
2021/06/30 01:13:40;;;;;;;16.00;9.02;;;;;;;;;;5076362;28;20024;-82
2021/06/30 01:16:06;;;;;;;13.50;8.85;;;;;;;;;;5077246;28;20353;-82
2021/06/30 01:18:33;;;;;;;14.48;9.57;;;;;;;;;;5077479;28;20029;-82
2021/06/30 01:21:00;;;;;;;11.05;8.68;;;;;;;;;;5077476;28;20028;-82
2021/06/30 01:23:27;;;;;;;11.60;8.98;;;;;;;;;;5077458;28;20028;-82
2021/06/30 01:25:53;;;;;;;16.35;9.65;;;;;;;;;;5077539;28;20027;-83
2021/06/30 01:28:20;;;;;;;13.65;9.30;;;;;;;;;;5077312;28;20044;-82
2021/06/30 01:30:48;;;;;;;18.55;8.88;;;;;;;;;;5077467;28;20353;-82
2021/06/30 01:33:14;;;;;;;12.90;9.65;;;;;;;;;;5077194;28;20044;-80
2021/06/30 01:35:40;;;;;;;14.27;10.07;;;;;;;;;;5077099;28;20025;-82
2021/06/30 01:38:06;;;;;;;17.40;11.40;;;;;;;;;;5076018;28;20050;-83
2021/06/30 01:40:32;;;;;;;19.40;12.77;;;;;;;;;;5077307;28;20040;-83
2021/06/30 01:42:59;;;;;;;15.98;12.05;;;;;;;;;;5076931;28;20057;-83
2021/06/30 01:45:25;;;;;;;14.45;10.88;;;;;;;;;;5077172;28;20016;-83
2021/06/30 01:47:51;;;;;;;17.15;10.50;;;;;;;;;;5077063;28;20099;-83
2021/06/30 01:50:18;;;;;;;11.55;10.15;;;;;;;;;;5076950;28;20025;-83
2021/06/30 01:52:45;;;;;;;15.80;10.27;;;;;;;;;;5075613;28;20044;-83
2021/06/30 01:55:12;;;;;;;14.88;10.05;;;;;;;;;;5076854;28;20027;-83
2021/06/30 01:57:39;;;;;;;17.15;10.05;;;;;;;;;;5076972;28;20036;-83
2021/06/30 02:00:05;;;;;;;19.60;10.02;;;;;;;;;;5076920;28;20028;-82
2021/06/30 02:02:31;;;;;;;13.57;10.13;;;;;;;;;;5076992;28;20064;-83
2021/06/30 02:05:08;;;;;;;16.15;10.45;;;;;;;;;;5080199;28;20460;-83
2021/06/30 02:07:35;;;;;;;17.65;10.80;;;;;;;;;;5081212;28;20021;-83
2021/06/30 02:10:01;;;;;;;14.70;9.90;;;;;;;;;;5081096;28;20024;-83
2021/06/30 02:12:27;;;;;;;16.25;10.60;;;;;;;;;;5080881;28;20120;-83
2021/06/30 02:14:53;;;;;;;13.23;10.77;;;;;;;;;;5080798;28;20291;-83
2021/06/30 02:17:19;;;;;;;18.63;11.90;;;;;;;;;;5080743;28;20456;-82
2021/06/30 02:19:48;;;;;;;18.40;11.90;;;;;;;;;;5080528;28;20024;-82
2021/06/30 02:22:14;;;;;;;16.30;11.15;;;;;;;;;;5080386;28;20051;-82
2021/06/30 02:24:40;;;;;;;18.25;11.10;;;;;;;;;;5080614;28;20070;-82
2021/06/30 02:27:06;;;;;;;17.50;10.27;;;;;;;;;;5079392;28;20107;-82
2021/06/30 02:29:32;;;;;;;16.08;10.90;;;;;;;;;;5080408;28;20027;-83
2021/06/30 02:31:58;;;;;;;18.17;11.73;;;;;;;;;;5080416;28;20042;-83
2021/06/30 02:34:24;;;;;;;16.17;10.95;;;;;;;;;;5080409;28;20020;-82
2021/06/30 02:36:51;;;;;;;21.33;11.60;;;;;;;;;;5080525;28;20055;-82
2021/06/30 02:39:17;;;;;;;18.00;12.02;;;;;;;;;;5079097;28;20024;-82
2021/06/30 02:41:44;;;;;;;16.42;11.25;;;;;;;;;;5079555;28;20048;-82
2021/06/30 02:44:10;;;;;;;15.50;11.55;;;;;;;;;;5080177;28;20047;-83
2021/06/30 02:46:36;;;;;;;16.13;11.07;;;;;;;;;;5080241;28;20020;-82
2021/06/30 02:49:02;;;;;;;21.33;11.48;;;;;;;;;;5080041;28;20024;-80
2021/06/30 02:51:28;;;;;;;20.90;11.77;;;;;;;;;;5080174;28;20043;-81
2021/06/30 02:53:54;;;;;;;19.85;11.48;;;;;;;;;;5080098;28;20024;-81
2021/06/30 02:56:21;;;;;;;18.88;11.63;;;;;;;;;;5078779;28;20024;-81
2021/06/30 02:58:48;;;;;;;20.65;12.02;;;;;;;;;;5080035;28;20024;-82
2021/06/30 03:01:14;;;;;;;20.30;11.82;;;;;;;;;;5079979;28;20024;-82
2021/06/30 03:03:40;;;;;;;21.85;12.23;;;;;;;;;;5079705;28;20031;-82
2021/06/30 03:06:06;;;;;;;24.65;13.77;;;;;;;;;;5079616;28;20047;-81
2021/06/30 03:08:32;;;;;;;23.55;14.30;;;;;;;;;;5079830;28;20028;-81
2021/06/30 03:10:58;;;;;;;20.80;13.60;;;;;;;;;;5079874;28;20027;-82
2021/06/30 03:13:24;;;;;;;22.55;12.80;;;;;;;;;;5079942;28;20139;-82
2021/06/30 03:15:51;;;;;;;16.80;11.65;;;;;;;;;;5079247;28;20316;-82
2021/06/30 03:18:18;;;;;;;24.73;13.02;;;;;;;;;;5079558;28;20056;-82
2021/06/30 03:20:44;;;;;;;25.23;12.05;;;;;;;;;;5079230;28;20074;-81
2021/06/30 03:23:11;;;;;;;21.38;11.75;;;;;;;;;;5079283;28;20418;-81
2021/06/30 03:25:37;;;;;;;18.75;11.55;;;;;;;;;;5079440;28;20052;-82
2021/06/30 03:28:03;;;;;;;21.75;12.05;;;;;;;;;;5079321;28;20028;-82
2021/06/30 03:30:31;;;;;;;27.67;13.00;;;;;;;;;;5079231;28;20016;-82
2021/06/30 03:32:57;;;;;;;24.10;13.13;;;;;;;;;;5079406;28;20036;-84
2021/06/30 03:35:23;;;;;;;24.42;12.88;;;;;;;;;;5079297;28;20067;-84
2021/06/30 03:37:49;;;;;;;21.70;12.68;;;;;;;;;;5079502;28;20310;-84
2021/06/30 03:40:16;;;;;;;22.50;12.73;;;;;;;;;;5079572;28;20024;-85
2021/06/30 03:42:42;;;;;;;19.27;12.60;;;;;;;;;;5079133;28;20044;-84
2021/06/30 03:45:09;;;;;;;29.58;12.75;;;;;;;;;;5079363;28;20043;-85
2021/06/30 03:47:35;;;;;;;25.98;12.55;;;;;;;;;;5079456;28;20029;-85
2021/06/30 03:50:01;;;;;;;23.20;12.23;;;;;;;;;;5079715;28;20036;-84
2021/06/30 03:52:27;;;;;;;26.60;11.57;;;;;;;;;;5078380;28;20020;-84
2021/06/30 03:54:53;;;;;;;27.45;12.73;;;;;;;;;;5079235;28;20021;-85
2021/06/30 03:57:20;;;;;;;27.52;12.98;;;;;;;;;;5079197;28;20025;-84
2021/06/30 03:59:46;;;;;;;24.98;13.18;;;;;;;;;;5077958;28;20064;-84
2021/06/30 04:02:12;;;;;;;23.02;11.88;;;;;;;;;;5078754;28;20025;-84
2021/06/30 04:04:38;;;;;;;22.33;12.20;;;;;;;;;;5078782;28;20142;-84
2021/06/30 04:07:04;;;;;;;22.58;12.93;;;;;;;;;;5078829;28;20025;-84
2021/06/30 04:09:30;;;;;;;24.10;12.85;;;;;;;;;;5079131;28;20020;-84
2021/06/30 04:11:56;;;;;;;22.08;12.85;;;;;;;;;;5078970;28;20440;-84
2021/06/30 04:14:23;;;;;;;28.20;12.55;;;;;;;;;;5078648;28;20115;-84
2021/06/30 04:16:49;;;;;;;24.35;12.02;;;;;;;;;;5078624;28;20028;-84
2021/06/30 04:19:15;;;;;;;27.42;12.55;;;;;;;;;;5078771;28;20048;-84
2021/06/30 04:21:41;;;;;;;24.85;13.77;;;;;;;;;;5077634;28;20421;-85
2021/06/30 04:24:07;;;;;;;22.80;12.88;;;;;;;;;;5078685;28;20035;-85
2021/06/30 04:26:34;;;;;;;21.67;12.13;;;;;;;;;;5077590;28;20024;-85
2021/06/30 04:29:00;;;;;;;23.98;12.48;;;;;;;;;;5078449;28;20104;-84
2021/06/30 04:31:27;;;;;;;28.15;12.65;;;;;;;;;;5078143;28;20108;-86
2021/06/30 04:33:53;;;;;;;26.48;11.95;;;;;;;;;;5078773;28;20314;-85
2021/06/30 04:36:19;;;;;;;20.95;12.55;;;;;;;;;;5078341;28;20047;-85
2021/06/30 04:38:46;;;;;;;23.20;12.75;;;;;;;;;;5077402;28;20039;-86
2021/06/30 04:41:12;;;;;;;22.27;12.65;;;;;;;;;;5078365;28;20040;-86
2021/06/30 04:43:39;;;;;;;29.88;12.32;;;;;;;;;;5078113;28;20493;-84
2021/06/30 04:46:06;;;;;;;32.75;13.63;;;;;;;;;;5078187;28;20025;-85
2021/06/30 04:48:32;;;;;;;30.50;13.40;;;;;;;;;;5078076;28;20021;-86
2021/06/30 04:50:58;;;;;;;25.73;11.70;;;;;;;;;;5077965;28;20419;-85
2021/06/30 04:53:24;;;;;;;26.60;10.75;;;;;;;;;;5078258;28;20040;-85
2021/06/30 04:55:50;;;;;;;20.58;10.02;;;;;;;;;;5077114;28;20043;-85
2021/06/30 04:58:18;;;;;;;18.48;9.88;;;;;;;;;;5078179;28;20025;-86
2021/06/30 05:00:44;;;;;;;28.13;11.63;;;;;;;;;;5077980;28;20085;-86
2021/06/30 05:03:10;;;;;;;29.42;10.88;;;;;;;;;;5078069;28;20050;-85
2021/06/30 05:05:36;;;;;;;34.35;10.55;;;;;;;;;;5077700;28;20047;-85
2021/06/30 05:08:02;;;;;;;20.90;10.60;;;;;;;;;;5077977;28;20021;-85
2021/06/30 05:10:29;;;;;;;21.70;10.45;;;;;;;;;;5077939;28;20357;-85
2021/06/30 05:12:55;;;;;;;24.42;9.73;;;;;;;;;;5076678;28;20365;-85
2021/06/30 05:15:22;;;;;;;22.20;10.32;;;;;;;;;;5077600;28;20020;-84
2021/06/30 05:17:49;;;;;;;25.25;11.57;;;;;;;;;;5076768;28;20028;-85
2021/06/30 05:20:16;;;;;;;27.17;10.02;;;;;;;;;;5076452;28;20033;-84
2021/06/30 05:22:42;;;;;;;24.60;10.93;;;;;;;;;;5077446;28;20039;-84
2021/06/30 05:25:08;;;;;;;27.13;10.35;;;;;;;;;;5077748;28;20040;-84
2021/06/30 05:27:34;;;;;;;27.30;10.43;;;;;;;;;;5077313;28;20418;-85
2021/06/30 05:30:00;;;;;;;24.92;9.43;;;;;;;;;;5077277;28;20052;-85
2021/06/30 05:32:26;;;;;;;20.88;9.63;;;;;;;;;;5076391;28;20326;-83
2021/06/30 05:34:52;;;;;;;26.63;8.73;;;;;;;;;;5077713;28;20024;-84
2021/06/30 05:37:18;;;;;;;21.92;8.75;;;;;;;;;;5077622;28;20029;-85
2021/06/30 05:39:45;;;;;;;22.10;8.10;;;;;;;;;;5077749;28;20111;-86
2021/06/30 05:42:11;;;;;;;18.20;8.48;;;;;;;;;;5077948;28;20044;-86
2021/06/30 05:44:37;;;;;;;25.35;9.48;;;;;;;;;;5082031;28;20021;-85
2021/06/30 05:47:03;;;;;;;22.70;8.38;;;;;;;;;;5077711;28;20016;-85
2021/06/30 05:49:29;;;;;;;19.80;7.22;;;;;;;;;;5077629;28;20013;-85
2021/06/30 05:51:55;;;;;;;24.30;8.52;;;;;;;;;;5076490;28;20416;-85
2021/06/30 05:54:21;;;;;;;27.67;8.52;;;;;;;;;;5077559;28;20066;-86
2021/06/30 05:56:48;;;;;;;21.05;7.53;;;;;;;;;;5077031;28;20059;-85
2021/06/30 05:59:14;;;;;;;19.85;6.88;;;;;;;;;;5076973;28;20024;-85
2021/06/30 06:01:40;;;;;;;22.15;7.47;;;;;;;;;;5077223;28;20421;-85
2021/06/30 06:04:06;;;;;;;24.10;7.90;;;;;;;;;;5076468;28;20032;-85
2021/06/30 06:06:32;;;;;;;26.00;8.77;;;;;;;;;;5077429;28;20025;-86
2021/06/30 06:08:58;;;;;;;23.98;7.82;;;;;;;;;;5076360;28;20159;-83
2021/06/30 06:11:24;;;;;;;26.17;7.88;;;;;;;;;;5077100;28;21193;-87
2021/06/30 06:13:50;;;;;;;20.63;7.20;;;;;;;;;;5077438;28;20095;-85
2021/06/30 06:16:20;;;;;;;23.67;7.55;;;;;;;;;;5076947;28;20414;-85
2021/06/30 06:18:47;;;;;;;22.23;8.00;;;;;;;;;;5076213;28;20035;-87
2021/06/30 06:21:13;;;;;;;31.20;8.57;;;;;;;;;;5076238;28;20032;-85
2021/06/30 06:23:39;;;;;;;15.20;6.78;;;;;;;;;;5077178;28;20132;-85
2021/06/30 06:26:05;;;;;;;22.27;8.65;;;;;;;;;;5075948;28;20051;-86
2021/06/30 06:28:33;;;;;;;49.95;25.45;;;;;;;;;;5077318;28;20352;-88
2021/06/30 06:31:00;;;;;;;37.33;21.75;;;;;;;;;;5077124;28;20096;-88
2021/06/30 06:33:27;;;;;;;34.63;19.70;;;;;;;;;;5076285;28;20033;-84
2021/06/30 06:35:53;;;;;;;25.85;9.77;;;;;;;;;;5077069;28;20029;-86
2021/06/30 06:38:20;;;;;;;22.15;7.55;;;;;;;;;;5076924;28;20032;-86
2021/06/30 06:40:46;;;;;;;22.95;7.55;;;;;;;;;;5076993;28;20024;-86
2021/06/30 06:43:12;;;;;;;19.10;6.70;;;;;;;;;;5076731;28;20056;-86
2021/06/30 06:45:38;;;;;;;25.02;7.22;;;;;;;;;;5076988;28;20033;-86
2021/06/30 06:48:05;;;;;;;24.95;7.60;;;;;;;;;;5075960;28;20096;-85
2021/06/30 06:50:32;;;;;;;19.88;6.72;;;;;;;;;;5078998;28;20421;-86
2021/06/30 06:52:58;;;;;;;22.65;8.15;;;;;;;;;;5080677;28;20104;-86
2021/06/30 06:55:24;;;;;;;23.25;7.88;;;;;;;;;;5080374;28;20028;-86
2021/06/30 06:57:51;;;;;;;21.88;6.80;;;;;;;;;;5080432;28;20410;-86
2021/06/30 07:00:18;;;;;;;25.40;7.22;;;;;;;;;;5079305;28;20024;-86
2021/06/30 07:02:44;;;;;;;22.55;7.55;;;;;;;;;;5080349;28;20028;-86
2021/06/30 07:05:10;;;;;;;20.70;6.57;;;;;;;;;;5080636;28;20032;-86
2021/06/30 07:07:40;;;;;;;25.08;6.78;;;;;;;;;;5080162;28;20040;-86
2021/06/30 07:10:06;;;;;;;26.17;7.07;;;;;;;;;;5080135;28;20021;-85
2021/06/30 07:12:33;;;;;;;22.00;8.88;;;;;;;;;;5080174;28;20028;-87
2021/06/30 07:15:17;;;;;;;31.27;7.38;;;;;;;;;;5080424;28;20032;-88
2021/06/30 07:17:44;;;;;;;25.88;8.27;;;;;;;;;;5079970;28;20029;-87
2021/06/30 07:20:10;;;;;;;31.23;13.07;;;;;;;;;;5080085;28;20082;-88
2021/06/30 07:22:36;;;;;;;26.15;7.30;;;;;;;;;;5080100;28;20085;-87
2021/06/30 07:25:02;;;;;;;26.00;8.50;;;;;;;;;;5079199;28;20020;-87
2021/06/30 07:27:28;;;;;;;18.50;5.80;;;;;;;;;;5079873;28;20063;-87
2021/06/30 07:29:54;;;;;;;26.50;6.45;;;;;;;;;;5079876;28;20418;-86
2021/06/30 07:32:20;;;;;;;25.60;7.10;;;;;;;;;;5080258;28;20481;-86
2021/06/30 07:34:46;;;;;;;18.08;6.28;;;;;;;;;;5089339;28;20037;-86
2021/06/30 07:37:13;;;;;;;21.10;6.15;;;;;;;;;;5082530;28;20131;-87
2021/06/30 07:39:39;;;;;;;22.42;6.85;;;;;;;;;;5079637;28;20029;-86
2021/06/30 07:42:05;;;;;;;19.98;6.85;;;;;;;;;;5078385;28;20052;-86
2021/06/30 07:44:31;;;;;;;19.13;6.47;;;;;;;;;;5079748;28;20046;-86
2021/06/30 07:46:57;;;;;;;32.25;7.18;;;;;;;;;;5078624;28;20025;-86
2021/06/30 07:49:23;;;;;;;21.77;5.97;;;;;;;;;;5079608;28;20071;-87
2021/06/30 07:51:50;;;;;;;15.88;5.63;;;;;;;;;;5078664;28;20024;-86
2021/06/30 07:54:17;;;;;;;17.63;5.28;;;;;;;;;;5079400;28;20078;-85
2021/06/30 07:56:43;;;;;;;19.08;6.10;;;;;;;;;;5078058;28;20310;-86
2021/06/30 07:59:10;;;;;;;18.10;6.10;;;;;;;;;;5079041;28;20090;-87
2021/06/30 08:01:36;;;;;;;24.92;6.85;;;;;;;;;;5078288;28;20066;-86
2021/06/30 08:04:03;;;;;;;20.70;5.95;;;;;;;;;;5078818;28;20138;-86
2021/06/30 08:06:29;;;;;;;16.83;5.60;;;;;;;;;;5078955;28;20045;-86
2021/06/30 08:08:57;;;;;;;21.63;6.45;;;;;;;;;;5078084;28;20025;-86
2021/06/30 08:11:23;;;;;;;17.05;5.60;;;;;;;;;;5078942;28;20021;-86
2021/06/30 08:13:53;;;;;;;18.45;5.60;;;;;;;;;;5079048;28;20368;-87
2021/06/30 08:16:20;;;;;;;16.00;5.45;;;;;;;;;;5078922;28;20055;-87
2021/06/30 08:18:46;;;;;;;16.30;5.90;;;;;;;;;;5077932;28;20310;-87
2021/06/30 08:21:12;;;;;;;18.63;5.50;;;;;;;;;;5078056;28;20055;-87
2021/06/30 08:23:38;;;;;;;18.23;5.40;;;;;;;;;;5078633;28;20479;-88
2021/06/30 08:26:08;;;;;;;21.25;4.95;;;;;;;;;;5078881;28;20334;-88
2021/06/30 08:28:34;;;;;;;18.98;4.95;;;;;;;;;;5077890;28;20017;-86
2021/06/30 08:31:00;;;;;;;15.65;4.43;;;;;;;;;;5077404;28;20027;-87
2021/06/30 08:33:26;;;;;;;20.83;5.80;;;;;;;;;;5078644;28;20066;-88
2021/06/30 08:35:54;;;;;;;15.35;4.35;;;;;;;;;;5078885;28;20497;-86
2021/06/30 08:38:20;;;;;;;20.23;4.72;;;;;;;;;;5077541;28;20048;-86
2021/06/30 08:40:46;;;;;;;20.60;5.90;;;;;;;;;;5078703;28;20024;-85
2021/06/30 08:43:12;;;;;;;20.25;5.00;;;;;;;;;;5077941;28;20052;-85
2021/06/30 08:45:39;;;;;;;19.98;4.75;;;;;;;;;;5078154;28;20023;-83
2021/06/30 08:48:06;;;;;;;14.52;5.13;;;;;;;;;;5079481;28;20020;-86
2021/06/30 08:50:34;;;;;;;18.40;4.95;;;;;;;;;;5077106;28;20017;-84
2021/06/30 08:53:01;;;;;;;21.77;5.72;;;;;;;;;;5078239;28;20066;-84
2021/06/30 08:55:27;;;;;;;18.02;4.80;;;;;;;;;;5076828;28;20055;-84
2021/06/30 08:57:53;;;;;;;20.55;4.90;;;;;;;;;;5077982;28;20069;-84
2021/06/30 09:00:20;;;;;;;17.70;4.95;;;;;;;;;;5078094;28;20070;-84
2021/06/30 09:02:47;;;;;;;14.20;4.30;;;;;;;;;;5077756;28;20028;-85
2021/06/30 09:07:51;;;;;;;19.23;4.47;;;;;;;;;;5056524;28;20463;-85
2021/06/30 09:10:36;;;;;;;20.48;4.43;;;;;;;;;;5057950;28;20314;-86
2021/06/30 09:13:03;;;;;;;66.97;7.75;;;;;;;;;;5057250;28;20033;-85
2021/06/30 09:15:34;;;;;;;19.70;4.65;;;;;;;;;;5056718;28;20047;-85
2021/06/30 09:18:17;;;;;;;14.02;4.35;;;;;;;;;;5056685;28;20063;-86
2021/06/30 09:20:43;;;;;;;67.63;7.85;;;;;;;;;;5057883;28;20053;-87
2021/06/30 09:23:10;;;;;;;17.83;4.40;;;;;;;;;;5061127;28;20025;-86
2021/06/30 09:25:40;;;;;;;19.13;5.53;;;;;;;;;;5067242;28;20036;-85
2021/06/30 09:28:19;;;;;;;22.08;4.57;;;;;;;;;;5056956;28;20112;-86
2021/06/30 09:30:55;;;;;;;17.95;4.53;;;;;;;;;;5057856;28;20013;-81
2021/06/30 09:33:21;;;;;;;19.27;4.47;;;;;;;;;;5057642;28;20025;-87
2021/06/30 09:35:48;;;;;;;15.82;3.97;;;;;;;;;;5057728;28;20104;-90
2021/06/30 09:38:26;;;;;;;24.17;4.40;;;;;;;;;;5057609;28;20021;-87
2021/06/30 09:40:52;;;;;;;37.70;5.85;;;;;;;;;;5057210;28;20433;-83
2021/06/30 09:43:36;;;;;;;165.75;13.38;;;;;;;;;;5057112;28;20351;-85
2021/06/30 09:46:04;;;;;;;16.58;3.90;;;;;;;;;;5057472;28;20028;-85
2021/06/30 09:48:35;;;;;;;16.63;4.25;;;;;;;;;;5056423;28;20025;-85
2021/06/30 09:51:05;;;;;;;18.05;4.00;;;;;;;;;;5057383;28;20021;-85
2021/06/30 09:53:42;;;;;;;16.80;4.25;;;;;;;;;;5057454;28;20032;-85
2021/06/30 09:56:12;;;;;;;16.58;3.40;;;;;;;;;;5057603;28;20025;-86
2021/06/30 09:58:38;;;;;;;18.08;4.10;;;;;;;;;;5055651;28;20029;-84
2021/06/30 10:01:20;;;;;;;12.75;3.78;;;;;;;;;;5055598;28;20098;-84
2021/06/30 10:03:47;;;;;;;13.93;4.45;;;;;;;;;;5055642;28;20445;-85
2021/06/30 10:06:23;;;;;;;16.58;3.53;;;;;;;;;;5055726;28;20407;-85
2021/06/30 10:08:49;;;;;;;18.25;4.00;;;;;;;;;;5054008;28;20195;-85
2021/06/30 10:11:15;;;;;;;9.57;3.58;;;;;;;;;;5056763;28;20323;-84
2021/06/30 10:13:42;;;;;;;16.70;4.00;;;;;;;;;;5056418;28;20029;-85
2021/06/30 10:16:08;;;;;;;17.98;4.25;;;;;;;;;;5055918;28;20148;-86
2021/06/30 10:18:34;;;;;;;16.52;3.50;;;;;;;;;;5057210;28;20061;-86
2021/06/30 10:21:00;;;;;;;14.45;3.58;;;;;;;;;;5056735;28;20056;-89
2021/06/30 10:26:03;;;;;;;13.38;2.92;;;;;;;;;;5291217;22;20050;-89
2021/06/30 10:28:29;;;;;;;19.75;3.72;;;;;;;;;;5001526;28;20022;-91
2021/06/30 10:30:55;;;;;;;13.32;4.10;;;;;;;;;;5000658;28;20097;-89
2021/06/30 10:33:33;;;;;;;16.83;3.08;;;;;;;;;;5001812;28;20049;-88
2021/06/30 10:35:59;;;;;;;14.35;3.60;;;;;;;;;;5001858;28;20018;-88
2021/06/30 10:38:44;;;;;;;11.32;3.20;;;;;;;;;;5000626;28;20495;-89
2021/06/30 10:41:51;;;;;;;17.95;3.60;;;;;;;;;;5001677;28;20022;-88
2021/06/30 10:44:19;;;;;;;16.13;3.53;;;;;;;;;;4983374;28;20048;-88
2021/06/30 10:46:45;;;;;;;11.75;3.38;;;;;;;;;;4999921;28;20041;-90
2021/06/30 10:49:14;;;;;;;13.20;3.08;;;;;;;;;;4999817;28;20081;-88
2021/06/30 10:51:44;;;;;;;17.83;3.15;;;;;;;;;;4999635;28;20126;-88
2021/06/30 10:54:33;;;;;;;10.90;3.80;;;;;;;;;;4983097;28;20475;-89
2021/06/30 10:57:18;;;;;;;19.90;3.30;;;;;;;;;;4973615;28;20039;-88
2021/06/30 11:00:02;;;;;;;15.68;3.53;;;;;;;;;;4983233;28;20031;-89
2021/06/30 11:02:33;;;;;;;15.00;4.00;;;;;;;;;;4999591;28;20081;-88
2021/06/30 11:04:59;;;;;;;;;;;;;;;;;;4999723;28;20079;-88
2021/06/30 11:07:34;;;;;;;13.10;3.85;;;;;;;;;;4999305;28;19916;-88
2021/06/30 11:10:21;;;;;;;16.33;4.05;;;;;;;;;;4999739;28;20109;-88
2021/06/30 11:12:50;;;;;;;16.30;3.20;;;;;;;;;;4946732;29;20091;-88
2021/06/30 11:15:38;;;;;;;15.02;4.03;;;;;;;;;;4955551;29;20054;-88
2021/06/30 11:18:05;;;;;;;16.10;3.47;;;;;;;;;;4932688;29;20115;-89
2021/06/30 11:20:49;;;;;;;10.05;3.35;;;;;;;;;;4922497;29;20044;-89
2021/06/30 11:23:21;;;;;;;15.75;3.60;;;;;;;;;;4921012;29;20036;-88
2021/06/30 11:25:48;;;;;;;13.90;3.40;;;;;;;;;;4920703;29;20052;-89
2021/06/30 11:28:36;;;;;;;15.38;3.65;;;;;;;;;;4918935;29;20026;-89
2021/06/30 11:31:20;;;;;;;15.77;3.22;;;;;;;;;;4905521;29;20032;-89
2021/06/30 11:34:05;;;;;;;14.95;3.45;;;;;;;;;;4905581;29;20040;-89
2021/06/30 11:36:36;;;;;;;14.90;3.30;;;;;;;;;;4921520;29;20036;-89
2021/06/30 11:39:09;;;;;;;21.25;3.67;;;;;;;;;;4919021;29;20277;-85
2021/06/30 11:41:49;;;;;;;20.60;3.95;;;;;;;;;;4921799;29;20052;-90
2021/06/30 11:44:18;;;;;;;20.10;3.93;;;;;;;;;;4922369;29;20112;-89
2021/06/30 11:46:44;;;;;;;21.52;3.83;;;;;;;;;;4921934;29;20254;-87
2021/06/30 11:49:11;;;;;;;14.52;3.40;;;;;;;;;;4934925;28;20031;-89
2021/06/30 11:51:38;;;;;;;12.23;3.20;;;;;;;;;;4979069;28;20151;-89
2021/06/30 11:54:04;;;;;;;15.00;3.47;;;;;;;;;;4980777;28;20326;-88
2021/06/30 11:56:30;;;;;;;13.02;3.47;;;;;;;;;;4980579;28;20046;-88
2021/06/30 11:58:56;;;;;;;17.23;3.33;;;;;;;;;;4980414;28;20027;-89
2021/06/30 12:04:26;;;;;;;20.48;3.97;;;;;;;;;;4980756;28;20038;-88
2021/06/30 12:07:00;;;;;;;14.95;3.33;;;;;;;;;;4980418;28;20050;-88
2021/06/30 12:09:27;;;;;;;14.65;3.05;;;;;;;;;;4980633;28;20046;-89
2021/06/30 12:12:06;;;;;;;13.93;3.80;;;;;;;;;;4979470;28;20019;-88
2021/06/30 12:14:49;;;;;;;23.27;4.47;;;;;;;;;;4980338;28;20066;-88
2021/06/30 12:17:19;;;;;;;14.73;3.80;;;;;;;;;;4980180;28;20037;-87
2021/06/30 12:19:46;;;;;;;15.52;5.03;;;;;;;;;;4980280;28;20058;-88
2021/06/30 12:22:20;;;;;;;15.23;3.35;;;;;;;;;;4979096;28;20057;-87
2021/06/30 12:24:47;;;;;;;15.07;3.53;;;;;;;;;;4979568;28;20314;-87
2021/06/30 12:27:13;;;;;;;17.17;4.10;;;;;;;;;;4978931;28;20062;-88
2021/06/30 12:29:40;;;;;;;15.90;3.42;;;;;;;;;;4979373;28;20023;-87
2021/06/30 12:32:10;;;;;;;14.73;3.47;;;;;;;;;;4979869;28;20424;-87
2021/06/30 12:34:36;;;;;;;19.98;3.78;;;;;;;;;;4980149;28;20038;-88
2021/06/30 12:37:03;;;;;;;15.15;3.58;;;;;;;;;;4979832;28;20023;-88
2021/06/30 12:39:31;;;;;;;13.82;3.95;;;;;;;;;;4979531;28;20113;-88
2021/06/30 12:41:57;;;;;;;14.52;3.45;;;;;;;;;;4979393;28;20027;-87
2021/06/30 12:44:23;;;;;;;16.75;3.92;;;;;;;;;;4978842;28;20026;-87
2021/06/30 12:47:09;;;;;;;12.48;3.88;;;;;;;;;;4979507;28;20015;-87
2021/06/30 12:49:35;;;;;;;21.38;3.50;;;;;;;;;;4979597;28;20030;-88
2021/06/30 12:52:02;;;;;;;23.77;3.90;;;;;;;;;;4979794;28;20019;-89
2021/06/30 12:54:28;;;;;;;19.17;3.50;;;;;;;;;;4979022;28;20039;-88
2021/06/30 12:57:04;;;;;;;17.20;3.55;;;;;;;;;;4979462;28;20425;-89
2021/06/30 12:59:30;;;;;;;17.75;3.72;;;;;;;;;;4979458;28;20026;-88
2021/06/30 13:01:57;;;;;;;14.07;3.60;;;;;;;;;;4984003;28;20029;-88
2021/06/30 13:04:30;;;;;;;18.35;3.85;;;;;;;;;;4993047;28;20362;-88
2021/06/30 13:06:58;;;;;;;15.77;3.78;;;;;;;;;;4978791;28;20423;-88
2021/06/30 13:09:26;;;;;;;14.25;3.42;;;;;;;;;;4979933;28;20022;-88
2021/06/30 13:11:56;;;;;;;18.30;3.53;;;;;;;;;;4978835;28;20042;-88
2021/06/30 13:14:29;;;;;;;17.55;3.53;;;;;;;;;;4979285;28;20433;-88
2021/06/30 13:16:57;;;;;;;17.23;3.92;;;;;;;;;;4979154;28;20055;-89
2021/06/30 13:19:25;;;;;;;16.67;3.35;;;;;;;;;;4979440;28;20286;-88
2021/06/30 13:21:53;;;;;;;19.63;3.95;;;;;;;;;;4979167;28;20029;-88
2021/06/30 13:24:23;;;;;;;16.48;3.75;;;;;;;;;;4978401;28;20027;-89
2021/06/30 13:35:17;;;;;;;18.05;3.75;;;;;;;;;;4959872;29;20066;-88
2021/06/30 13:37:43;;;;;;;15.13;3.63;;;;;;;;;;4959568;28;20054;-89
2021/06/30 13:40:10;;;;;;;17.23;3.65;;;;;;;;;;4959431;28;20031;-88
2021/06/30 13:42:36;;;;;;;22.35;4.22;;;;;;;;;;4959501;28;20105;-88
2021/06/30 13:45:02;;;;;;;17.30;3.65;;;;;;;;;;4959483;28;20409;-88
2021/06/30 13:47:28;;;;;;;16.77;4.03;;;;;;;;;;4959639;28;20043;-88
2021/06/30 13:49:54;;;;;;;20.65;4.00;;;;;;;;;;4959502;28;20030;-89
2021/06/30 13:52:20;;;;;;;15.23;3.33;;;;;;;;;;4959489;28;20027;-88
2021/06/30 13:54:46;;;;;;;17.98;3.75;;;;;;;;;;4959615;28;20078;-88
2021/06/30 13:57:12;;;;;;;20.35;3.58;;;;;;;;;;4958221;28;20041;-89
2021/06/30 13:59:38;;;;;;;23.33;3.95;;;;;;;;;;4962198;28;20078;-88
2021/06/30 14:02:05;;;;;;;16.85;4.25;;;;;;;;;;4962345;28;20027;-88
2021/06/30 14:04:31;;;;;;;22.08;3.92;;;;;;;;;;4962407;28;20050;-87
2021/06/30 14:06:57;;;;;;;21.33;4.13;;;;;;;;;;4963270;28;20063;-88
2021/06/30 14:09:23;;;;;;;19.15;4.47;;;;;;;;;;4962996;28;20083;-88
2021/06/30 14:11:49;;;;;;;17.23;3.90;;;;;;;;;;4963033;28;20420;-88
2021/06/30 14:14:15;;;;;;;18.40;3.92;;;;;;;;;;4962142;28;20124;-87
2021/06/30 14:16:41;;;;;;;21.30;3.88;;;;;;;;;;4962918;28;20043;-88
2021/06/30 14:19:07;;;;;;;22.10;3.80;;;;;;;;;;4961960;28;20074;-89
2021/06/30 14:21:33;;;;;;;16.75;3.13;;;;;;;;;;4962161;28;20122;-88
2021/06/30 14:23:59;;;;;;;19.58;4.30;;;;;;;;;;4962466;28;20038;-89
2021/06/30 14:26:25;;;;;;;14.68;3.70;;;;;;;;;;4962649;28;20055;-89
2021/06/30 14:28:51;;;;;;;21.15;4.20;;;;;;;;;;4963144;28;20337;-89
2021/06/30 14:31:17;;;;;;;16.15;4.88;;;;;;;;;;4961876;28;20082;-87
2021/06/30 14:33:44;;;;;;;14.65;3.70;;;;;;;;;;4962852;28;20351;-89
2021/06/30 14:36:11;;;;;;;19.30;3.78;;;;;;;;;;4961861;29;20106;-89
2021/06/30 14:38:37;;;;;;;21.77;4.25;;;;;;;;;;4961685;28;20074;-88
2021/06/30 14:41:03;;;;;;;16.33;3.65;;;;;;;;;;4962635;28;20322;-88
2021/06/30 14:43:29;;;;;;;16.52;3.45;;;;;;;;;;4962260;28;20027;-89
2021/06/30 14:46:00;;;;;;;18.40;4.10;;;;;;;;;;4962746;28;20106;-87